createdAt,value
2022-09-20T00:02:01.989Z,100949.53
2022-09-20T00:04:29.882Z,100968.53
2022-09-20T00:06:57.638Z,100969.59
2022-09-20T00:09:25.536Z,100959.78
2022-09-20T00:11:54.802Z,100960.59
2022-09-20T00:14:22.551Z,100969.16
2022-09-20T00:16:50.379Z,100967.47
2022-09-20T00:19:20.776Z,100966.41
2022-09-20T00:21:48.866Z,100960.75
2022-09-20T00:24:16.671Z,100966.19
2022-09-20T00:26:44.431Z,100962.22
2022-09-20T00:29:13.751Z,100967.22
2022-09-20T00:31:42.957Z,100960.31
2022-09-20T00:34:30.775Z,100969.25
2022-09-20T00:36:58.561Z,100959.22
2022-09-20T00:39:26.396Z,100964.25
2022-09-20T00:41:54.147Z,100966.13
2022-09-20T00:44:47.647Z,100967.38
2022-09-20T00:47:23.505Z,100960.47
2022-09-20T00:49:54.237Z,100958.59
2022-09-20T00:52:22.891Z,100964.84
2022-09-20T00:54:51.044Z,100961.69
2022-09-20T00:57:18.944Z,100969.25
2022-09-20T00:59:50.255Z,100961.50
2022-09-20T01:02:20.590Z,100971.69
2022-09-20T01:04:49.956Z,100963.34
2022-09-20T01:07:22.980Z,100984.44
2022-09-20T01:09:51.600Z,100982.56
2022-09-20T01:12:22.813Z,100976.47
2022-09-20T01:14:53.596Z,100962.47
2022-09-20T01:17:25.991Z,100975.22
2022-09-20T01:20:08.894Z,100983.13
2022-09-20T01:22:49.571Z,100980.00
2022-09-20T01:25:24.977Z,100989.38
2022-09-20T01:27:55.251Z,100982.06
2022-09-20T01:30:25.877Z,100989.38
2022-09-20T01:33:09.120Z,100980.16
2022-09-20T01:35:37.551Z,100984.94
2022-09-20T01:38:21.237Z,100981.41
2022-09-20T01:40:57.392Z,100974.94
2022-09-20T01:43:32.822Z,100982.91
2022-09-20T01:46:10.255Z,100984.59
2022-09-20T01:48:39.934Z,100976.06
2022-09-20T01:51:37.039Z,100981.06
2022-09-20T01:54:50.446Z,100978.34
2022-09-20T01:57:38.200Z,100975.41
2022-09-20T02:00:14.040Z,100969.16
2022-09-20T02:03:33.265Z,100978.75
2022-09-20T02:06:40.207Z,100977.00
2022-09-20T02:09:40.812Z,100984.06
2022-09-20T02:12:39.575Z,100970.09
2022-09-20T02:15:16.361Z,100984.78
2022-09-20T02:17:56.223Z,100981.75
2022-09-20T02:20:34.397Z,100973.16
2022-09-20T02:23:17.213Z,100979.03
2022-09-20T02:26:06.080Z,100979.66
2022-09-20T02:28:52.886Z,100972.88
2022-09-20T02:31:33.572Z,100971.84
2022-09-20T02:34:42.947Z,100976.00
2022-09-20T02:37:25.559Z,100973.09
2022-09-20T02:40:13.687Z,100979.13
2022-09-20T02:42:48.514Z,100974.69
2022-09-20T02:45:24.556Z,100980.34
2022-09-20T02:47:57.587Z,100983.72
2022-09-20T02:50:33.346Z,100994.13
2022-09-20T02:53:15.249Z,100985.91
2022-09-20T02:55:51.221Z,100984.19
2022-09-20T02:58:31.667Z,100988.66
2022-09-20T03:01:06.371Z,100990.59
2022-09-20T03:03:45.318Z,100991.81
2022-09-20T03:06:24.315Z,100980.94
2022-09-20T03:08:59.446Z,100995.75
2022-09-20T03:11:33.643Z,100990.75
2022-09-20T03:14:12.779Z,100983.81
2022-09-20T03:16:53.856Z,100987.50
2022-09-20T03:19:37.344Z,100996.28
2022-09-20T03:22:18.148Z,100984.66
2022-09-20T03:25:00.203Z,100983.97
2022-09-20T03:27:34.821Z,100985.25
2022-09-20T03:30:25.273Z,100992.75
2022-09-20T03:33:02.922Z,100993.91
2022-09-20T03:35:46.430Z,101002.16
2022-09-20T03:38:31.628Z,100992.47
2022-09-20T03:41:17.016Z,100995.50
2022-09-20T03:44:02.725Z,100999.81
2022-09-20T03:46:35.620Z,100993.56
2022-09-20T03:49:41.821Z,100992.34
2022-09-20T03:52:23.077Z,100995.09
2022-09-20T03:55:47.532Z,101002.19
2022-09-20T03:58:29.297Z,101004.34
2022-09-20T04:01:10.465Z,101006.22
2022-09-20T04:03:49.582Z,101000.72
2022-09-20T04:06:49.021Z,101015.09
2022-09-20T04:09:32.376Z,101012.59
2022-09-20T04:12:06.844Z,101009.22
2022-09-20T04:14:41.719Z,101010.16
2022-09-20T04:17:26.151Z,101002.91
2022-09-20T04:20:00.697Z,101014.19
2022-09-20T04:22:30.556Z,101013.72
2022-09-20T04:25:05.330Z,101013.25
2022-09-20T04:27:38.341Z,101012.44
2022-09-20T04:30:11.964Z,101021.56
2022-09-20T04:32:44.902Z,101016.50
2022-09-20T04:35:40.185Z,101016.16
2022-09-20T04:38:11.045Z,101010.56
2022-09-20T04:40:57.695Z,101010.16
2022-09-20T04:44:06.115Z,101013.75
2022-09-20T04:46:59.814Z,101020.19
2022-09-20T04:50:06.111Z,101024.22
2022-09-20T04:52:49.795Z,101030.28
2022-09-20T04:56:00.893Z,101023.06
2022-09-20T04:59:08.250Z,101033.09
2022-09-20T05:02:11.710Z,101040.75
2022-09-20T05:05:21.774Z,101037.13
2022-09-20T05:08:19.268Z,101039.72
2022-09-20T05:11:39.409Z,101051.13
2022-09-20T05:14:26.866Z,101055.41
2022-09-20T05:17:14.694Z,101047.38
2022-09-20T05:19:55.647Z,101052.50
2022-09-20T05:22:48.172Z,101053.72
2022-09-20T05:25:45.065Z,101060.50
2022-09-20T05:28:21.800Z,101055.91
2022-09-20T05:30:56.359Z,101054.59
2022-09-20T05:33:29.652Z,101053.31
2022-09-20T05:36:07.611Z,101054.91
2022-09-20T05:38:47.205Z,101061.22
2022-09-20T05:41:29.800Z,101058.59
2022-09-20T05:44:07.310Z,101064.00
2022-09-20T05:46:50.839Z,101069.72
2022-09-20T05:49:40.645Z,101069.81
2022-09-20T05:52:26.844Z,101072.63
2022-09-20T05:55:26.516Z,101071.50
2022-09-20T05:58:18.018Z,101070.38
2022-09-20T06:00:52.803Z,101070.84
2022-09-20T06:03:31.875Z,101059.78
2022-09-20T06:06:07.109Z,101080.94
2022-09-20T06:09:07.364Z,101073.19
2022-09-20T06:12:01.782Z,101083.19
2022-09-20T06:14:41.512Z,101080.31
2022-09-20T06:17:21.991Z,101081.78
2022-09-20T06:20:00.583Z,101076.41
2022-09-20T06:22:33.387Z,101080.59
2022-09-20T06:25:04.453Z,101088.38
2022-09-20T06:27:37.593Z,101079.19
2022-09-20T06:30:09.054Z,101081.91
2022-09-20T06:32:53.464Z,101090.94
2022-09-20T06:35:25.225Z,101087.38
2022-09-20T06:38:17.859Z,101079.84
2022-09-20T06:41:07.054Z,101088.66
2022-09-20T06:43:40.371Z,101090.31
2022-09-20T06:46:08.840Z,101093.03
2022-09-20T06:48:39.925Z,101085.28
2022-09-20T06:51:11.079Z,101096.63
2022-09-20T06:53:41.991Z,101094.06
2022-09-20T06:56:15.426Z,101097.47
2022-09-20T06:58:43.315Z,101092.81
2022-09-20T07:01:11.236Z,101101.59
2022-09-20T07:03:39.186Z,101101.41
2022-09-20T07:06:07.595Z,101102.03
2022-09-20T07:08:36.860Z,101095.94
2022-09-20T07:11:06.212Z,101097.97
2022-09-20T07:13:34.342Z,101103.22
2022-09-20T07:16:03.256Z,101103.41
2022-09-20T07:18:31.772Z,101101.31
2022-09-20T07:20:59.686Z,101103.16
2022-09-20T07:23:27.512Z,101102.69
2022-09-20T07:26:01.589Z,101103.25
2022-09-20T07:28:30.570Z,101099.69
2022-09-20T07:30:58.690Z,101108.66
2022-09-20T07:33:26.495Z,101104.56
2022-09-20T07:35:55.761Z,101108.19
2022-09-20T07:38:24.156Z,101102.84
2022-09-20T07:40:57.956Z,101109.06
2022-09-20T07:43:26.565Z,101109.78
2022-09-20T07:45:56.220Z,101106.22
2022-09-20T07:48:26.868Z,101110.03
2022-09-20T07:50:56.113Z,101119.75
2022-09-20T07:53:24.145Z,101116.75
2022-09-20T07:56:01.508Z,101126.50
2022-09-20T07:58:30.502Z,101119.84
2022-09-20T08:01:00.266Z,101116.78
2022-09-20T08:03:30.961Z,101122.47
2022-09-20T08:06:03.092Z,101122.69
2022-09-20T08:08:33.864Z,101121.28
2022-09-20T08:11:08.181Z,101126.03
2022-09-20T08:16:28.771Z,101118.50
2022-09-20T08:18:58.859Z,101127.69
2022-09-20T08:21:28.243Z,101120.91
2022-09-20T08:23:56.350Z,101126.97
2022-09-20T08:26:26.913Z,101122.41
2022-09-20T08:28:57.238Z,101125.44
2022-09-20T08:31:27.821Z,101123.47
2022-09-20T08:33:56.241Z,101117.19
2022-09-20T08:36:26.125Z,101115.63
2022-09-20T08:41:49.595Z,101122.91
2022-09-20T08:44:25.322Z,101118.69
2022-09-20T08:47:02.646Z,101129.56
2022-09-20T08:49:31.814Z,101121.72
2022-09-20T08:52:02.333Z,101128.13
2022-09-20T08:54:33.420Z,101125.22
2022-09-20T08:57:07.095Z,101126.88
2022-09-20T08:59:35.073Z,101123.13
2022-09-20T09:02:03.012Z,101127.63
2022-09-20T09:04:36.149Z,101127.31
2022-09-20T09:07:04.665Z,101127.53
2022-09-20T09:09:38.045Z,101121.91
2022-09-20T09:12:07.650Z,101135.75
2022-09-20T09:14:55.020Z,101140.97
2022-09-20T09:17:28.313Z,101129.44
2022-09-20T09:19:57.736Z,101123.19
2022-09-20T09:22:32.154Z,101130.59
2022-09-20T09:25:24.378Z,101117.59
2022-09-20T09:27:58.490Z,101118.31
2022-09-20T09:30:28.912Z,101119.13
2022-09-20T09:33:32.141Z,101117.97
2022-09-20T09:36:05.721Z,101113.72
2022-09-20T09:38:36.117Z,101117.13
2022-09-20T09:41:06.463Z,101120.44
2022-09-20T09:43:38.486Z,101116.41
2022-09-20T09:46:21.525Z,101108.28
2022-09-20T09:49:06.617Z,101120.13
2022-09-20T09:51:38.595Z,101108.59
2022-09-20T09:54:08.109Z,101100.94
2022-09-20T09:56:59.530Z,101112.06
2022-09-20T09:59:41.217Z,101117.78
2022-09-20T10:02:28.839Z,101117.97
2022-09-20T10:05:04.170Z,101117.13
2022-09-20T10:07:39.463Z,101117.59
2022-09-20T10:10:18.075Z,101109.69
2022-09-20T10:13:03.283Z,101120.16
2022-09-20T10:15:42.556Z,101111.94
2022-09-20T10:18:32.759Z,101105.31
2022-09-20T10:21:10.024Z,101105.72
2022-09-20T10:24:08.248Z,101098.56
2022-09-20T10:26:58.258Z,101092.41
2022-09-20T10:29:40.272Z,101090.84
2022-09-20T10:32:22.923Z,101083.69
2022-09-20T10:35:20.841Z,101086.41
2022-09-20T10:38:01.485Z,101078.63
2022-09-20T10:40:50.028Z,101077.50
2022-09-20T10:43:32.907Z,101069.94
2022-09-20T10:46:32.339Z,101073.69
2022-09-20T10:49:11.853Z,101076.53
2022-09-20T10:51:53.068Z,101078.00
2022-09-20T10:54:35.484Z,101083.59
2022-09-20T10:57:19.076Z,101088.66
2022-09-20T10:59:55.232Z,101077.38
2022-09-20T11:02:40.135Z,101072.97
2022-09-20T11:05:27.326Z,101067.59
2022-09-20T11:08:07.935Z,101070.09
2022-09-20T11:10:43.020Z,101064.72
2022-09-20T11:13:19.013Z,101075.88
2022-09-20T11:15:53.696Z,101065.38
2022-09-20T11:18:26.549Z,101063.06
2022-09-20T11:21:01.758Z,101060.66
2022-09-20T11:23:41.945Z,101066.66
2022-09-20T11:26:14.419Z,101072.00
2022-09-20T11:28:46.228Z,101076.88
2022-09-20T11:31:23.497Z,101084.31
2022-09-20T11:33:56.417Z,101095.25
2022-09-20T11:36:31.504Z,101098.72
2022-09-20T11:39:04.534Z,101106.06
2022-09-20T11:41:34.458Z,101112.50
2022-09-20T11:44:07.944Z,101104.28
2022-09-20T11:46:41.564Z,101121.75
2022-09-20T11:49:17.481Z,101113.03
2022-09-20T11:52:22.090Z,101119.53
2022-09-20T11:55:10.747Z,101110.78
2022-09-20T11:57:39.205Z,101114.41
2022-09-20T12:00:10.194Z,101119.00
2022-09-20T12:02:46.098Z,101110.56
2022-09-20T12:05:27.735Z,101105.81
2022-09-20T12:07:59.405Z,101099.59
2022-09-20T12:10:30.516Z,101100.44
2022-09-20T12:13:00.593Z,101093.56
2022-09-20T12:15:32.139Z,101091.16
2022-09-20T12:18:09.360Z,101094.47
2022-09-20T12:21:00.915Z,101094.84
2022-09-20T12:23:48.034Z,101071.88
2022-09-20T12:26:41.221Z,101081.19
2022-09-20T12:29:54.188Z,101080.34
2022-09-20T12:32:46.187Z,101088.34
2022-09-20T12:36:00.031Z,101096.69
2022-09-20T12:38:37.902Z,101092.97
2022-09-20T12:41:27.816Z,101091.41
2022-09-20T12:44:03.824Z,101096.94
2022-09-20T12:46:53.170Z,101098.09
2022-09-20T12:49:46.192Z,101085.13
2022-09-20T12:52:55.518Z,101088.22
2022-09-20T12:55:40.746Z,101086.81
2022-09-20T12:58:28.026Z,101079.78
2022-09-20T13:01:29.641Z,101075.63
2022-09-20T13:04:55.083Z,101077.38
2022-09-20T13:07:43.760Z,101075.97
2022-09-20T13:10:25.238Z,101075.25
2022-09-20T13:12:58.420Z,101069.34
2022-09-20T13:15:28.297Z,101073.22
2022-09-20T13:18:00.770Z,101073.66
2022-09-20T13:20:31.365Z,101068.50
2022-09-20T13:23:01.038Z,101079.72
2022-09-20T13:25:29.689Z,101085.28
2022-09-20T13:28:07.547Z,101079.66
2022-09-20T13:30:37.559Z,101077.03
2022-09-20T13:33:23.163Z,101079.66
2022-09-20T13:35:54.484Z,101081.38
2022-09-20T13:38:25.349Z,101076.88
2022-09-20T13:40:55.073Z,101073.94
2022-09-20T13:43:29.200Z,101077.38
2022-09-20T13:46:00.449Z,101080.78
2022-09-20T13:48:29.706Z,101076.91
2022-09-20T13:50:58.615Z,101070.91
2022-09-20T13:53:41.203Z,101078.53
2022-09-20T13:56:12.587Z,101078.75
2022-09-20T13:58:40.500Z,101076.00
2022-09-20T14:01:24.077Z,101071.88
2022-09-20T14:03:52.242Z,101066.41
2022-09-20T14:06:28.177Z,101071.91
2022-09-20T14:08:58.441Z,101062.09
2022-09-20T14:11:28.547Z,101059.91
2022-09-20T14:13:58.832Z,101060.38
2022-09-20T14:16:32.567Z,101062.19
2022-09-20T14:19:02.022Z,101058.69
2022-09-20T14:21:33.445Z,101050.38
2022-09-20T14:24:04.895Z,101050.19
2022-09-20T14:26:34.705Z,101045.78
2022-09-20T14:29:29.528Z,101048.03
2022-09-20T14:32:01.088Z,101028.56
2022-09-20T14:34:29.470Z,101047.53
2022-09-20T14:37:06.226Z,101045.00
2022-09-20T14:39:39.195Z,101044.53
2022-09-20T14:42:19.874Z,101045.13
2022-09-20T14:44:51.699Z,101033.13
2022-09-20T14:47:28.561Z,101038.94
2022-09-20T14:49:58.044Z,101042.72
2022-09-20T14:52:45.358Z,101025.59
2022-09-20T14:55:28.329Z,101039.19
2022-09-20T14:58:01.494Z,101037.91
2022-09-20T15:00:30.395Z,101036.16
2022-09-20T15:03:09.170Z,101034.81
2022-09-20T15:05:37.164Z,101026.31
2022-09-20T15:08:04.995Z,101031.81
2022-09-20T15:10:33.054Z,101026.56
2022-09-20T15:13:00.832Z,101014.66
2022-09-20T15:15:28.704Z,101019.34
2022-09-20T15:17:56.528Z,101021.66
2022-09-20T15:20:25.947Z,101006.41
2022-09-20T15:22:53.809Z,101008.66
2022-09-20T15:25:22.334Z,101011.66
2022-09-20T15:27:51.750Z,101011.13
2022-09-20T15:30:21.119Z,101010.91
2022-09-20T15:32:49.069Z,101020.53
2022-09-20T15:35:17.096Z,101025.28
2022-09-20T15:37:46.520Z,101010.72
2022-09-20T15:40:15.479Z,101043.78
2022-09-20T15:42:43.875Z,101032.41
2022-09-20T15:45:13.274Z,101024.50
2022-09-20T15:47:42.349Z,101026.13
2022-09-20T15:50:11.249Z,101031.88
2022-09-20T15:52:41.989Z,101034.44
2022-09-20T15:55:12.072Z,101045.31
2022-09-20T15:57:41.834Z,101036.97
2022-09-20T16:00:10.814Z,101046.03
2022-09-20T16:02:38.887Z,101049.28
2022-09-20T16:05:07.183Z,101049.78
2022-09-20T16:07:35.877Z,101060.97
2022-09-20T16:10:04.319Z,101053.03
2022-09-20T16:12:33.513Z,101059.75
2022-09-20T16:15:01.394Z,101065.56
2022-09-20T16:17:46.618Z,101069.72
2022-09-20T16:20:14.571Z,101059.81
2022-09-20T16:22:42.352Z,101081.38
2022-09-20T16:25:10.421Z,101080.50
2022-09-20T16:27:39.919Z,101088.28
2022-09-20T16:30:09.079Z,101092.47
2022-09-20T16:32:37.487Z,101084.16
2022-09-20T16:35:07.740Z,101089.00
2022-09-20T16:37:36.988Z,101085.97
2022-09-20T16:40:05.136Z,101095.47
2022-09-20T16:42:33.359Z,101092.50
2022-09-20T16:45:02.662Z,101097.59
2022-09-20T16:47:30.892Z,101093.84
2022-09-20T16:49:58.814Z,101088.31
2022-09-20T16:52:27.424Z,101102.47
2022-09-20T16:54:56.023Z,101115.69
2022-09-20T16:57:23.833Z,101110.75
2022-09-20T16:59:54.122Z,101112.81
2022-09-20T17:02:23.263Z,101106.41
2022-09-20T17:04:51.893Z,101111.81
2022-09-20T17:07:24.544Z,101118.59
2022-09-20T17:09:53.462Z,101131.72
2022-09-20T17:12:23.374Z,101125.13
2022-09-20T17:14:51.242Z,101127.69
2022-09-20T17:17:21.889Z,101123.19
2022-09-20T17:19:51.235Z,101121.63
2022-09-20T17:22:18.984Z,101130.13
2022-09-20T17:24:46.779Z,101126.72
2022-09-20T17:27:14.811Z,101135.13
2022-09-20T17:29:42.619Z,101141.75
2022-09-20T17:32:11.307Z,101145.59
2022-09-20T17:34:39.736Z,101139.13
2022-09-20T17:37:10.086Z,101139.06
2022-09-20T17:39:37.968Z,101159.72
2022-09-20T17:42:06.134Z,101156.78
2022-09-20T17:44:36.721Z,101160.53
2022-09-20T17:47:04.898Z,101172.00
2022-09-20T17:49:33.931Z,101165.19
2022-09-20T17:52:02.380Z,101186.31
2022-09-20T17:54:31.617Z,101171.47
2022-09-20T17:56:59.997Z,101176.78
2022-09-20T17:59:28.158Z,101178.91
2022-09-20T18:01:55.929Z,101180.03
2022-09-20T18:04:24.989Z,101179.97
2022-09-20T18:06:54.695Z,101186.53
2022-09-20T18:09:25.266Z,101184.22
2022-09-20T18:11:55.972Z,101187.38
2022-09-20T18:14:27.265Z,101198.06
2022-09-20T18:16:57.787Z,101200.59
2022-09-20T18:19:32.332Z,101211.28
2022-09-20T18:22:00.537Z,101202.34
2022-09-20T18:24:28.467Z,101203.44
2022-09-20T18:26:57.688Z,101212.13
2022-09-20T18:29:27.793Z,101208.81
2022-09-20T18:31:56.753Z,101222.44
2022-09-20T18:34:31.834Z,101215.47
2022-09-20T18:37:01.321Z,101217.22
2022-09-20T18:39:31.397Z,101222.47
2022-09-20T18:42:01.002Z,101231.88
2022-09-20T18:44:33.486Z,101239.44
2022-09-20T18:47:02.676Z,101238.16
2022-09-20T18:49:30.729Z,101244.44
2022-09-20T18:51:59.008Z,101231.50
2022-09-20T18:54:30.100Z,101243.81
2022-09-20T18:56:58.418Z,101243.63
2022-09-20T18:59:29.205Z,101251.19
2022-09-20T19:02:05.658Z,101253.69
2022-09-20T19:04:49.214Z,101259.56
2022-09-20T19:07:24.689Z,101259.13
2022-09-20T19:09:58.842Z,101250.56
2022-09-20T19:12:34.934Z,101267.50
2022-09-20T19:15:30.481Z,101263.97
2022-09-20T19:18:11.134Z,101271.50
2022-09-20T19:20:47.715Z,101268.78
2022-09-20T19:23:44.789Z,101260.56
2022-09-20T19:26:21.967Z,101282.38
2022-09-20T19:28:51.044Z,101285.31
2022-09-20T19:31:26.605Z,101292.03
2022-09-20T19:33:56.305Z,101290.13
2022-09-20T19:36:25.387Z,101286.34
2022-09-20T19:39:03.873Z,101303.53
2022-09-20T19:41:47.277Z,101295.16
2022-09-20T19:44:29.612Z,101303.31
2022-09-20T19:47:11.097Z,101303.94
2022-09-20T19:49:51.133Z,101304.31
2022-09-20T19:52:19.713Z,101301.41
2022-09-20T19:54:48.132Z,101302.03
2022-09-20T19:57:21.112Z,101307.47
2022-09-20T19:59:50.542Z,101302.69
2022-09-20T20:02:20.899Z,101310.66
2022-09-20T20:04:49.323Z,101305.19
2022-09-20T20:07:27.952Z,101315.50
2022-09-20T20:10:04.205Z,101305.84
2022-09-20T20:12:39.542Z,101309.78
2022-09-20T20:15:19.215Z,101327.16
2022-09-20T20:17:56.455Z,101326.50
2022-09-20T20:20:32.750Z,101325.66
2022-09-20T20:23:35.381Z,101323.09
2022-09-20T20:26:07.155Z,101328.13
2022-09-20T20:28:35.945Z,101321.81
2022-09-20T20:31:05.129Z,101326.84
2022-09-20T20:33:34.317Z,101331.63
2022-09-20T20:36:03.086Z,101338.47
2022-09-20T20:38:36.798Z,101346.63
2022-09-20T20:41:06.720Z,101336.81
2022-09-20T20:43:36.380Z,101343.50
2022-09-20T20:46:04.838Z,101338.44
2022-09-20T20:48:34.693Z,101341.25
2022-09-20T20:51:03.748Z,101340.72
2022-09-20T20:53:33.097Z,101349.69
2022-09-20T20:56:07.152Z,101346.50
2022-09-20T20:58:36.213Z,101351.19
2022-09-20T21:01:08.452Z,101345.59
2022-09-20T21:03:37.924Z,101342.19
2022-09-20T21:06:06.149Z,101358.81
2022-09-20T21:08:35.863Z,101357.13
2022-09-20T21:11:05.781Z,101348.00
2022-09-20T21:13:35.204Z,101354.66
2022-09-20T21:16:05.661Z,101355.63
2022-09-20T21:18:34.372Z,101360.41
2022-09-20T21:21:05.312Z,101356.22
2022-09-20T21:23:37.004Z,101354.25
2022-09-20T21:26:08.428Z,101354.00
2022-09-20T21:28:37.857Z,101356.25
2022-09-20T21:31:06.799Z,101359.09
2022-09-20T21:33:36.561Z,101354.25
2022-09-20T21:36:08.075Z,101358.25
2022-09-20T21:38:36.783Z,101350.63
2022-09-20T21:41:06.641Z,101359.38
2022-09-20T21:43:34.899Z,101357.25
2022-09-20T21:46:03.926Z,101350.91
2022-09-20T21:48:31.934Z,101368.59
2022-09-20T21:51:06.182Z,101366.16
2022-09-20T21:53:35.084Z,101371.00
2022-09-20T21:56:05.027Z,101371.66
2022-09-20T21:58:33.963Z,101371.94
2022-09-20T22:01:04.326Z,101377.09
2022-09-20T22:03:34.838Z,101371.19
2022-09-20T22:06:12.533Z,101383.91
2022-09-20T22:08:42.207Z,101390.16
2022-09-20T22:11:14.949Z,101379.72
2022-09-20T22:13:43.876Z,101380.00
2022-09-20T22:16:13.457Z,101387.19
2022-09-20T22:18:42.927Z,101381.28
2022-09-20T22:21:13.969Z,101389.31
2022-09-20T22:23:42.935Z,101381.19
2022-09-20T22:26:13.347Z,101372.59
2022-09-20T22:28:41.280Z,101385.28
2022-09-20T22:31:11.114Z,101378.66
2022-09-20T22:33:43.079Z,101385.38
2022-09-20T22:36:15.670Z,101382.03
2022-09-20T22:38:44.652Z,101363.19
2022-09-20T22:41:13.438Z,101382.75
2022-09-20T22:43:41.797Z,101385.47
2022-09-20T22:46:11.888Z,101385.09
2022-09-20T22:48:40.118Z,101386.94
2022-09-20T22:51:09.510Z,101374.38
2022-09-20T22:53:39.320Z,101390.06
2022-09-20T22:56:08.640Z,101397.41
2022-09-20T22:58:38.445Z,101399.13
2022-09-20T23:01:08.246Z,101399.88
2022-09-20T23:03:36.606Z,101404.13
2022-09-20T23:06:04.884Z,101405.75
2022-09-20T23:08:33.602Z,101410.94
2022-09-20T23:11:07.024Z,101413.03
2022-09-20T23:13:35.148Z,101402.09
2022-09-20T23:16:11.577Z,101405.97
2022-09-20T23:18:39.454Z,101392.19
2022-09-20T23:21:07.646Z,101403.84
2022-09-20T23:23:36.481Z,101406.56
2022-09-20T23:26:08.422Z,101413.88
2022-09-20T23:28:37.229Z,101405.53
2022-09-20T23:31:06.554Z,101400.63
2022-09-20T23:33:34.834Z,101399.47
2022-09-20T23:36:06.632Z,101413.84
2022-09-20T23:38:34.396Z,101404.28
2022-09-20T23:41:04.801Z,101407.16
2022-09-20T23:43:37.623Z,101401.97
2022-09-20T23:46:08.356Z,101397.75
2022-09-20T23:48:37.097Z,101398.25
2022-09-20T23:51:06.060Z,101403.66
2022-09-20T23:53:34.103Z,101397.25
2022-09-20T23:56:02.258Z,101404.00
2022-09-20T23:58:30.150Z,101400.63
